sensor_id;sensor_type;location;lat;lon;timestamp;temperature;humidity
6538;DHT22;3302;52.508;13.454;2022-09-09T00:02:21;15.30;99.90
6538;DHT22;3302;52.508;13.454;2022-09-09T00:07:59;15.30;99.90
6538;DHT22;3302;52.508;13.454;2022-09-09T00:10:39;15.20;99.90
6538;DHT22;3302;52.508;13.454;2022-09-09T00:15:49;15.10;99.90
6538;DHT22;3302;52.508;13.454;2022-09-09T00:18:47;15.10;99.90
6538;DHT22;3302;52.508;13.454;2022-09-09T00:21:17;15.10;99.90
6538;DHT22;3302;52.508;13.454;2022-09-09T00:23:52;15.10;99.90
6538;DHT22;3302;52.508;13.454;2022-09-09T00:26:32;15.10;99.90
6538;DHT22;3302;52.508;13.454;2022-09-09T00:29:23;15.00;99.90
6538;DHT22;3302;52.508;13.454;2022-09-09T00:31:54;15.10;99.90
6538;DHT22;3302;52.508;13.454;2022-09-09T00:34:29;15.00;99.90
6538;DHT22;3302;52.508;13.454;2022-09-09T00:36:56;15.00;99.90
6538;DHT22;3302;52.508;13.454;2022-09-09T00:39:41;14.90;99.90
6538;DHT22;3302;52.508;13.454;2022-09-09T00:42:43;14.90;99.90
6538;DHT22;3302;52.508;13.454;2022-09-09T00:45:35;15.00;99.90
6538;DHT22;3302;52.508;13.454;2022-09-09T00:48:10;14.90;99.90
6538;DHT22;3302;52.508;13.454;2022-09-09T00:50:57;14.90;99.90
6538;DHT22;3302;52.508;13.454;2022-09-09T00:56:14;14.90;99.90
6538;DHT22;3302;52.508;13.454;2022-09-09T00:58:46;14.80;99.90
6538;DHT22;3302;52.508;13.454;2022-09-09T01:01:16;14.80;99.90
6538;DHT22;3302;52.508;13.454;2022-09-09T01:03:49;14.80;99.90
6538;DHT22;3302;52.508;13.454;2022-09-09T01:06:33;14.80;99.90
6538;DHT22;3302;52.508;13.454;2022-09-09T01:09:26;14.80;99.90
6538;DHT22;3302;52.508;13.454;2022-09-09T01:12:28;14.70;99.90
6538;DHT22;3302;52.508;13.454;2022-09-09T01:15:07;14.70;99.90
6538;DHT22;3302;52.508;13.454;2022-09-09T01:17:46;14.70;99.90
6538;DHT22;3302;52.508;13.454;2022-09-09T01:20:24;14.70;99.90
6538;DHT22;3302;52.508;13.454;2022-09-09T01:28:36;14.70;99.90
6538;DHT22;3302;52.508;13.454;2022-09-09T01:31:04;14.70;99.90
6538;DHT22;3302;52.508;13.454;2022-09-09T01:33:32;14.60;99.90
6538;DHT22;3302;52.508;13.454;2022-09-09T01:36:06;14.60;99.90
6538;DHT22;3302;52.508;13.454;2022-09-09T01:38:33;14.60;99.90
6538;DHT22;3302;52.508;13.454;2022-09-09T01:41:00;14.70;99.90
6538;DHT22;3302;52.508;13.454;2022-09-09T01:43:27;14.60;99.90
6538;DHT22;3302;52.508;13.454;2022-09-09T01:45:55;14.70;99.90
6538;DHT22;3302;52.508;13.454;2022-09-09T01:48:23;14.60;99.90
6538;DHT22;3302;52.508;13.454;2022-09-09T01:50:49;14.60;99.90
6538;DHT22;3302;52.508;13.454;2022-09-09T01:53:17;14.50;99.90
6538;DHT22;3302;52.508;13.454;2022-09-09T01:58:51;14.50;99.90
6538;DHT22;3302;52.508;13.454;2022-09-09T02:01:54;14.60;99.90
6538;DHT22;3302;52.508;13.454;2022-09-09T02:06:48;14.50;99.90
6538;DHT22;3302;52.508;13.454;2022-09-09T02:09:19;14.50;99.90
6538;DHT22;3302;52.508;13.454;2022-09-09T02:11:47;14.40;99.90
6538;DHT22;3302;52.508;13.454;2022-09-09T02:14:19;14.40;99.90
6538;DHT22;3302;52.508;13.454;2022-09-09T02:17:09;14.30;99.90
6538;DHT22;3302;52.508;13.454;2022-09-09T02:19:49;14.30;99.90
6538;DHT22;3302;52.508;13.454;2022-09-09T02:22:18;14.30;99.90
6538;DHT22;3302;52.508;13.454;2022-09-09T02:24:45;14.30;99.90
6538;DHT22;3302;52.508;13.454;2022-09-09T02:27:12;14.30;99.90
6538;DHT22;3302;52.508;13.454;2022-09-09T02:29:41;14.30;99.90
6538;DHT22;3302;52.508;13.454;2022-09-09T02:32:22;14.30;99.90
6538;DHT22;3302;52.508;13.454;2022-09-09T02:34:51;14.30;99.90
6538;DHT22;3302;52.508;13.454;2022-09-09T02:37:22;14.30;99.90
6538;DHT22;3302;52.508;13.454;2022-09-09T02:39:48;14.30;99.90
6538;DHT22;3302;52.508;13.454;2022-09-09T02:42:14;14.30;99.90
6538;DHT22;3302;52.508;13.454;2022-09-09T02:44:41;14.20;99.90
6538;DHT22;3302;52.508;13.454;2022-09-09T02:47:27;14.20;99.90
6538;DHT22;3302;52.508;13.454;2022-09-09T02:50:16;14.20;99.90
6538;DHT22;3302;52.508;13.454;2022-09-09T02:58:05;14.30;99.90
6538;DHT22;3302;52.508;13.454;2022-09-09T03:00:32;14.30;99.90
6538;DHT22;3302;52.508;13.454;2022-09-09T03:02:58;14.20;99.90
6538;DHT22;3302;52.508;13.454;2022-09-09T03:05:24;14.20;99.90
6538;DHT22;3302;52.508;13.454;2022-09-09T03:07:50;14.20;99.90
6538;DHT22;3302;52.508;13.454;2022-09-09T03:10:17;14.30;99.90
6538;DHT22;3302;52.508;13.454;2022-09-09T03:12:43;14.20;99.90
6538;DHT22;3302;52.508;13.454;2022-09-09T03:15:09;14.20;99.90
6538;DHT22;3302;52.508;13.454;2022-09-09T03:17:35;14.10;99.90
6538;DHT22;3302;52.508;13.454;2022-09-09T03:20:05;14.10;99.90
6538;DHT22;3302;52.508;13.454;2022-09-09T03:22:31;14.10;99.90
6538;DHT22;3302;52.508;13.454;2022-09-09T03:24:56;14.20;99.90
6538;DHT22;3302;52.508;13.454;2022-09-09T03:27:22;14.20;99.90
6538;DHT22;3302;52.508;13.454;2022-09-09T03:29:48;14.10;99.90
6538;DHT22;3302;52.508;13.454;2022-09-09T03:32:17;14.10;99.90
6538;DHT22;3302;52.508;13.454;2022-09-09T03:34:43;14.00;99.90
6538;DHT22;3302;52.508;13.454;2022-09-09T03:37:09;14.00;99.90
6538;DHT22;3302;52.508;13.454;2022-09-09T03:39:35;14.00;99.90
6538;DHT22;3302;52.508;13.454;2022-09-09T03:42:01;14.00;99.90
6538;DHT22;3302;52.508;13.454;2022-09-09T03:44:30;14.00;99.90
6538;DHT22;3302;52.508;13.454;2022-09-09T03:46:56;14.00;99.90
6538;DHT22;3302;52.508;13.454;2022-09-09T03:49:21;14.00;99.90
6538;DHT22;3302;52.508;13.454;2022-09-09T03:51:48;14.00;99.90
6538;DHT22;3302;52.508;13.454;2022-09-09T03:54:14;13.90;99.90
6538;DHT22;3302;52.508;13.454;2022-09-09T03:56:39;14.00;99.90
6538;DHT22;3302;52.508;13.454;2022-09-09T03:59:07;13.90;99.90
6538;DHT22;3302;52.508;13.454;2022-09-09T04:01:34;14.00;99.90
6538;DHT22;3302;52.508;13.454;2022-09-09T04:04:00;14.00;99.90
6538;DHT22;3302;52.508;13.454;2022-09-09T04:06:27;14.00;99.90
6538;DHT22;3302;52.508;13.454;2022-09-09T04:08:53;13.90;99.90
6538;DHT22;3302;52.508;13.454;2022-09-09T04:11:20;14.00;99.90
6538;DHT22;3302;52.508;13.454;2022-09-09T04:13:46;14.10;99.90
6538;DHT22;3302;52.508;13.454;2022-09-09T04:16:12;14.20;99.90
6538;DHT22;3302;52.508;13.454;2022-09-09T04:18:41;14.20;99.90
6538;DHT22;3302;52.508;13.454;2022-09-09T04:21:09;14.20;99.90
6538;DHT22;3302;52.508;13.454;2022-09-09T04:23:35;14.00;99.90
6538;DHT22;3302;52.508;13.454;2022-09-09T04:26:02;14.00;99.90
6538;DHT22;3302;52.508;13.454;2022-09-09T04:28:30;14.10;99.90
6538;DHT22;3302;52.508;13.454;2022-09-09T04:30:57;14.10;99.90
6538;DHT22;3302;52.508;13.454;2022-09-09T04:33:28;14.10;99.90
6538;DHT22;3302;52.508;13.454;2022-09-09T04:35:55;13.90;99.90
6538;DHT22;3302;52.508;13.454;2022-09-09T04:38:21;13.80;99.90
6538;DHT22;3302;52.508;13.454;2022-09-09T04:40:50;13.90;99.90
6538;DHT22;3302;52.508;13.454;2022-09-09T04:43:17;13.90;99.90
6538;DHT22;3302;52.508;13.454;2022-09-09T04:45:47;13.80;99.90
6538;DHT22;3302;52.508;13.454;2022-09-09T04:48:13;13.80;99.90
6538;DHT22;3302;52.508;13.454;2022-09-09T04:50:39;13.90;99.90
6538;DHT22;3302;52.508;13.454;2022-09-09T04:53:06;14.00;99.90
6538;DHT22;3302;52.508;13.454;2022-09-09T04:55:32;14.00;99.90
6538;DHT22;3302;52.508;13.454;2022-09-09T04:58:07;14.00;99.90
6538;DHT22;3302;52.508;13.454;2022-09-09T05:00:35;14.10;99.90
6538;DHT22;3302;52.508;13.454;2022-09-09T05:03:05;14.00;99.90
6538;DHT22;3302;52.508;13.454;2022-09-09T05:05:31;13.90;99.90
6538;DHT22;3302;52.508;13.454;2022-09-09T05:08:04;14.00;99.90
6538;DHT22;3302;52.508;13.454;2022-09-09T05:10:30;14.00;99.90
6538;DHT22;3302;52.508;13.454;2022-09-09T05:12:56;14.00;99.90
6538;DHT22;3302;52.508;13.454;2022-09-09T05:15:22;14.00;99.90
6538;DHT22;3302;52.508;13.454;2022-09-09T05:17:48;14.00;99.90
6538;DHT22;3302;52.508;13.454;2022-09-09T05:20:14;14.10;99.90
6538;DHT22;3302;52.508;13.454;2022-09-09T05:22:39;14.00;99.90
6538;DHT22;3302;52.508;13.454;2022-09-09T05:25:06;14.10;99.90
6538;DHT22;3302;52.508;13.454;2022-09-09T05:27:36;14.10;99.90
6538;DHT22;3302;52.508;13.454;2022-09-09T05:30:03;14.10;99.90
6538;DHT22;3302;52.508;13.454;2022-09-09T05:32:30;14.20;99.90
6538;DHT22;3302;52.508;13.454;2022-09-09T05:34:59;14.20;99.90
6538;DHT22;3302;52.508;13.454;2022-09-09T05:37:25;14.20;99.90
6538;DHT22;3302;52.508;13.454;2022-09-09T05:39:51;14.30;99.90
6538;DHT22;3302;52.508;13.454;2022-09-09T05:42:17;14.40;99.90
6538;DHT22;3302;52.508;13.454;2022-09-09T05:44:42;14.40;99.90
6538;DHT22;3302;52.508;13.454;2022-09-09T05:47:08;14.40;99.90
6538;DHT22;3302;52.508;13.454;2022-09-09T05:49:35;14.40;99.90
6538;DHT22;3302;52.508;13.454;2022-09-09T05:52:01;14.50;99.90
6538;DHT22;3302;52.508;13.454;2022-09-09T05:54:27;14.50;99.90
6538;DHT22;3302;52.508;13.454;2022-09-09T05:56:52;14.60;99.90
6538;DHT22;3302;52.508;13.454;2022-09-09T05:59:19;14.60;99.90
6538;DHT22;3302;52.508;13.454;2022-09-09T06:01:45;14.60;99.90
6538;DHT22;3302;52.508;13.454;2022-09-09T06:04:11;14.70;99.90
6538;DHT22;3302;52.508;13.454;2022-09-09T06:06:37;14.90;99.90
6538;DHT22;3302;52.508;13.454;2022-09-09T06:09:07;14.90;99.90
6538;DHT22;3302;52.508;13.454;2022-09-09T06:11:37;14.90;99.90
6538;DHT22;3302;52.508;13.454;2022-09-09T06:14:04;15.00;99.90
6538;DHT22;3302;52.508;13.454;2022-09-09T06:16:31;15.00;99.90
6538;DHT22;3302;52.508;13.454;2022-09-09T06:19:00;15.00;99.90
6538;DHT22;3302;52.508;13.454;2022-09-09T06:21:34;15.10;99.90
6538;DHT22;3302;52.508;13.454;2022-09-09T06:24:02;15.10;99.90
6538;DHT22;3302;52.508;13.454;2022-09-09T06:26:38;15.10;99.90
6538;DHT22;3302;52.508;13.454;2022-09-09T06:29:06;15.30;99.90
6538;DHT22;3302;52.508;13.454;2022-09-09T06:31:33;15.30;99.90
6538;DHT22;3302;52.508;13.454;2022-09-09T06:34:00;15.40;99.90
6538;DHT22;3302;52.508;13.454;2022-09-09T06:36:31;15.50;99.90
6538;DHT22;3302;52.508;13.454;2022-09-09T06:38:57;15.50;99.90
6538;DHT22;3302;52.508;13.454;2022-09-09T06:41:25;15.60;99.90
6538;DHT22;3302;52.508;13.454;2022-09-09T06:43:54;15.70;99.90
6538;DHT22;3302;52.508;13.454;2022-09-09T06:46:25;15.60;99.90
6538;DHT22;3302;52.508;13.454;2022-09-09T06:48:54;15.60;99.90
6538;DHT22;3302;52.508;13.454;2022-09-09T06:51:26;15.70;99.90
6538;DHT22;3302;52.508;13.454;2022-09-09T06:53:54;15.90;99.90
6538;DHT22;3302;52.508;13.454;2022-09-09T06:56:27;15.80;99.90
6538;DHT22;3302;52.508;13.454;2022-09-09T06:58:55;15.90;99.90
6538;DHT22;3302;52.508;13.454;2022-09-09T07:01:23;16.10;99.90
6538;DHT22;3302;52.508;13.454;2022-09-09T07:03:51;16.20;99.90
6538;DHT22;3302;52.508;13.454;2022-09-09T07:06:20;16.20;99.90
6538;DHT22;3302;52.508;13.454;2022-09-09T07:08:56;16.30;99.90
6538;DHT22;3302;52.508;13.454;2022-09-09T07:11:25;16.20;99.90
6538;DHT22;3302;52.508;13.454;2022-09-09T07:13:52;16.50;99.90
6538;DHT22;3302;52.508;13.454;2022-09-09T07:16:20;16.50;99.90
6538;DHT22;3302;52.508;13.454;2022-09-09T07:18:46;16.60;99.90
6538;DHT22;3302;52.508;13.454;2022-09-09T07:21:14;16.80;99.90
6538;DHT22;3302;52.508;13.454;2022-09-09T07:23:41;16.90;99.90
6538;DHT22;3302;52.508;13.454;2022-09-09T07:26:12;17.00;99.90
6538;DHT22;3302;52.508;13.454;2022-09-09T07:28:39;17.00;99.90
6538;DHT22;3302;52.508;13.454;2022-09-09T07:31:06;17.00;99.90
6538;DHT22;3302;52.508;13.454;2022-09-09T07:33:34;17.10;99.90
6538;DHT22;3302;52.508;13.454;2022-09-09T07:36:06;17.40;99.90
6538;DHT22;3302;52.508;13.454;2022-09-09T07:38:40;17.30;99.90
6538;DHT22;3302;52.508;13.454;2022-09-09T07:41:13;17.50;99.90
6538;DHT22;3302;52.508;13.454;2022-09-09T07:43:41;17.60;99.90
6538;DHT22;3302;52.508;13.454;2022-09-09T07:46:08;17.70;99.90
6538;DHT22;3302;52.508;13.454;2022-09-09T07:48:34;17.80;99.90
6538;DHT22;3302;52.508;13.454;2022-09-09T07:51:09;17.90;99.90
6538;DHT22;3302;52.508;13.454;2022-09-09T07:53:36;17.90;99.90
6538;DHT22;3302;52.508;13.454;2022-09-09T07:56:11;18.10;99.90
6538;DHT22;3302;52.508;13.454;2022-09-09T07:58:38;18.20;99.90
6538;DHT22;3302;52.508;13.454;2022-09-09T08:01:13;18.40;99.90
6538;DHT22;3302;52.508;13.454;2022-09-09T08:03:39;18.50;99.90
6538;DHT22;3302;52.508;13.454;2022-09-09T08:06:06;18.60;99.90
6538;DHT22;3302;52.508;13.454;2022-09-09T08:08:33;18.60;99.90
6538;DHT22;3302;52.508;13.454;2022-09-09T08:11:07;18.80;99.90
6538;DHT22;3302;52.508;13.454;2022-09-09T08:13:38;18.60;99.90
6538;DHT22;3302;52.508;13.454;2022-09-09T08:16:10;18.60;99.90
6538;DHT22;3302;52.508;13.454;2022-09-09T08:18:37;18.70;99.90
6538;DHT22;3302;52.508;13.454;2022-09-09T08:21:08;18.70;99.90
6538;DHT22;3302;52.508;13.454;2022-09-09T08:23:34;18.60;99.90
6538;DHT22;3302;52.508;13.454;2022-09-09T08:26:05;18.50;99.90
6538;DHT22;3302;52.508;13.454;2022-09-09T08:28:31;18.50;99.90
6538;DHT22;3302;52.508;13.454;2022-09-09T08:31:15;18.50;99.90
6538;DHT22;3302;52.508;13.454;2022-09-09T08:33:42;18.20;99.90
6538;DHT22;3302;52.508;13.454;2022-09-09T08:36:12;18.10;99.90
6538;DHT22;3302;52.508;13.454;2022-09-09T08:38:41;18.20;99.90
6538;DHT22;3302;52.508;13.454;2022-09-09T08:44:16;18.50;99.90
6538;DHT22;3302;52.508;13.454;2022-09-09T08:49:53;18.40;99.90
6538;DHT22;3302;52.508;13.454;2022-09-09T08:52:27;18.30;99.90
6538;DHT22;3302;52.508;13.454;2022-09-09T08:54:58;18.40;99.90
6538;DHT22;3302;52.508;13.454;2022-09-09T08:57:28;18.40;99.90
6538;DHT22;3302;52.508;13.454;2022-09-09T08:59:57;18.30;99.90
6538;DHT22;3302;52.508;13.454;2022-09-09T09:02:34;18.50;99.90
6538;DHT22;3302;52.508;13.454;2022-09-09T09:05:15;18.40;99.90
6538;DHT22;3302;52.508;13.454;2022-09-09T09:07:56;18.50;99.90
6538;DHT22;3302;52.508;13.454;2022-09-09T09:10:48;18.40;99.90
6538;DHT22;3302;52.508;13.454;2022-09-09T09:13:31;18.60;99.90
6538;DHT22;3302;52.508;13.454;2022-09-09T09:17:12;18.80;99.90
6538;DHT22;3302;52.508;13.454;2022-09-09T09:19:12;19.00;99.90
6538;DHT22;3302;52.508;13.454;2022-09-09T09:21:48;19.10;99.90
6538;DHT22;3302;52.508;13.454;2022-09-09T09:24:22;19.30;99.90
6538;DHT22;3302;52.508;13.454;2022-09-09T09:26:49;19.20;99.90
6538;DHT22;3302;52.508;13.454;2022-09-09T09:29:17;19.40;99.90
6538;DHT22;3302;52.508;13.454;2022-09-09T09:31:52;19.60;99.90
6538;DHT22;3302;52.508;13.454;2022-09-09T09:34:20;19.90;99.90
6538;DHT22;3302;52.508;13.454;2022-09-09T09:36:54;20.10;99.90
6538;DHT22;3302;52.508;13.454;2022-09-09T09:39:35;20.10;99.90
6538;DHT22;3302;52.508;13.454;2022-09-09T09:42:11;20.00;99.90
6538;DHT22;3302;52.508;13.454;2022-09-09T09:44:41;19.90;99.90
6538;DHT22;3302;52.508;13.454;2022-09-09T09:47:11;20.00;99.90
6538;DHT22;3302;52.508;13.454;2022-09-09T09:49:37;19.90;99.90
6538;DHT22;3302;52.508;13.454;2022-09-09T09:52:05;20.10;99.90
6538;DHT22;3302;52.508;13.454;2022-09-09T09:54:37;20.20;99.90
6538;DHT22;3302;52.508;13.454;2022-09-09T09:57:14;20.20;99.90
6538;DHT22;3302;52.508;13.454;2022-09-09T09:59:42;20.30;99.90
6538;DHT22;3302;52.508;13.454;2022-09-09T10:02:25;20.40;99.90
6538;DHT22;3302;52.508;13.454;2022-09-09T10:05:22;20.50;99.90
6538;DHT22;3302;52.508;13.454;2022-09-09T10:08:10;20.50;99.90
6538;DHT22;3302;52.508;13.454;2022-09-09T10:16:57;20.10;99.90
6538;DHT22;3302;52.508;13.454;2022-09-09T10:19:35;20.20;99.90
6538;DHT22;3302;52.508;13.454;2022-09-09T10:24:50;20.30;99.90
6538;DHT22;3302;52.508;13.454;2022-09-09T10:33:16;20.50;99.90
6538;DHT22;3302;52.508;13.454;2022-09-09T10:36:17;20.70;99.90
6538;DHT22;3302;52.508;13.454;2022-09-09T10:39:16;20.50;99.90
6538;DHT22;3302;52.508;13.454;2022-09-09T10:42:30;20.40;99.90
6538;DHT22;3302;52.508;13.454;2022-09-09T10:45:01;20.50;99.90
6538;DHT22;3302;52.508;13.454;2022-09-09T10:51:00;20.70;99.90
6538;DHT22;3302;52.508;13.454;2022-09-09T10:54:02;20.70;99.90
6538;DHT22;3302;52.508;13.454;2022-09-09T10:56:31;20.70;99.90
6538;DHT22;3302;52.508;13.454;2022-09-09T10:59:17;20.70;99.90
6538;DHT22;3302;52.508;13.454;2022-09-09T11:01:49;20.90;99.90
6538;DHT22;3302;52.508;13.454;2022-09-09T11:04:51;21.20;99.90
6538;DHT22;3302;52.508;13.454;2022-09-09T11:07:29;21.40;99.90
6538;DHT22;3302;52.508;13.454;2022-09-09T11:10:02;21.30;99.90
6538;DHT22;3302;52.508;13.454;2022-09-09T11:12:36;21.20;99.90
6538;DHT22;3302;52.508;13.454;2022-09-09T11:15:13;21.30;99.90
6538;DHT22;3302;52.508;13.454;2022-09-09T11:17:43;21.40;99.90
6538;DHT22;3302;52.508;13.454;2022-09-09T11:20:13;21.10;99.90
6538;DHT22;3302;52.508;13.454;2022-09-09T11:22:53;21.00;99.90
6538;DHT22;3302;52.508;13.454;2022-09-09T11:25:25;20.90;99.90
6538;DHT22;3302;52.508;13.454;2022-09-09T11:30:46;21.00;99.90
6538;DHT22;3302;52.508;13.454;2022-09-09T11:39:39;21.00;99.90
6538;DHT22;3302;52.508;13.454;2022-09-09T11:42:15;21.10;99.90
6538;DHT22;3302;52.508;13.454;2022-09-09T11:44:42;21.00;99.90
6538;DHT22;3302;52.508;13.454;2022-09-09T11:47:37;21.10;99.90
6538;DHT22;3302;52.508;13.454;2022-09-09T11:52:45;21.00;99.90
6538;DHT22;3302;52.508;13.454;2022-09-09T11:55:34;21.10;99.90
6538;DHT22;3302;52.508;13.454;2022-09-09T12:03:06;21.10;99.90
6538;DHT22;3302;52.508;13.454;2022-09-09T12:05:51;21.10;99.90
6538;DHT22;3302;52.508;13.454;2022-09-09T12:08:26;21.20;99.90
6538;DHT22;3302;52.508;13.454;2022-09-09T12:10:59;21.20;99.90
6538;DHT22;3302;52.508;13.454;2022-09-09T12:13:28;21.40;99.90
6538;DHT22;3302;52.508;13.454;2022-09-09T12:15:58;21.60;99.90
6538;DHT22;3302;52.508;13.454;2022-09-09T12:21:39;21.80;99.90
6538;DHT22;3302;52.508;13.454;2022-09-09T12:24:11;21.60;99.90
6538;DHT22;3302;52.508;13.454;2022-09-09T12:26:46;21.80;99.90
6538;DHT22;3302;52.508;13.454;2022-09-09T12:38:04;21.70;99.90
6538;DHT22;3302;52.508;13.454;2022-09-09T12:40:22;21.70;99.90
6538;DHT22;3302;52.508;13.454;2022-09-09T12:42:47;21.70;99.90
6538;DHT22;3302;52.508;13.454;2022-09-09T12:45:19;21.70;99.90
6538;DHT22;3302;52.508;13.454;2022-09-09T12:47:53;21.70;99.90
6538;DHT22;3302;52.508;13.454;2022-09-09T12:50:22;21.70;99.90
6538;DHT22;3302;52.508;13.454;2022-09-09T12:52:52;21.60;99.90
6538;DHT22;3302;52.508;13.454;2022-09-09T12:55:30;21.60;99.90
6538;DHT22;3302;52.508;13.454;2022-09-09T12:57:57;21.60;99.90
6538;DHT22;3302;52.508;13.454;2022-09-09T13:00:25;21.60;99.90
6538;DHT22;3302;52.508;13.454;2022-09-09T13:02:54;21.70;99.90
6538;DHT22;3302;52.508;13.454;2022-09-09T13:05:25;21.70;99.90
6538;DHT22;3302;52.508;13.454;2022-09-09T13:08:00;21.70;99.90
6538;DHT22;3302;52.508;13.454;2022-09-09T13:10:29;21.70;99.80
6538;DHT22;3302;52.508;13.454;2022-09-09T13:12:56;21.70;99.90
6538;DHT22;3302;52.508;13.454;2022-09-09T13:15:26;21.70;99.70
6538;DHT22;3302;52.508;13.454;2022-09-09T13:18:07;21.70;99.90
6538;DHT22;3302;52.508;13.454;2022-09-09T13:20:36;21.70;99.50
6538;DHT22;3302;52.508;13.454;2022-09-09T13:23:02;21.80;99.50
6538;DHT22;3302;52.508;13.454;2022-09-09T13:25:29;21.80;98.90
6538;DHT22;3302;52.508;13.454;2022-09-09T13:28:03;21.80;98.40
6538;DHT22;3302;52.508;13.454;2022-09-09T13:33:21;21.80;98.80
6538;DHT22;3302;52.508;13.454;2022-09-09T13:35:57;21.80;98.40
6538;DHT22;3302;52.508;13.454;2022-09-09T13:38:23;21.80;98.50
6538;DHT22;3302;52.508;13.454;2022-09-09T13:41:08;21.80;98.30
6538;DHT22;3302;52.508;13.454;2022-09-09T13:43:45;21.90;98.00
6538;DHT22;3302;52.508;13.454;2022-09-09T13:51:38;22.00;96.90
6538;DHT22;3302;52.508;13.454;2022-09-09T13:54:05;22.10;97.50
6538;DHT22;3302;52.508;13.454;2022-09-09T13:56:35;22.50;97.00
6538;DHT22;3302;52.508;13.454;2022-09-09T13:59:04;22.50;96.30
6538;DHT22;3302;52.508;13.454;2022-09-09T14:01:30;22.50;96.90
6538;DHT22;3302;52.508;13.454;2022-09-09T14:03:57;22.40;96.00
6538;DHT22;3302;52.508;13.454;2022-09-09T14:06:22;22.30;96.60
6538;DHT22;3302;52.508;13.454;2022-09-09T14:08:50;22.20;96.70
6538;DHT22;3302;52.508;13.454;2022-09-09T14:11:16;22.20;97.00
6538;DHT22;3302;52.508;13.454;2022-09-09T14:13:43;22.20;97.10
6538;DHT22;3302;52.508;13.454;2022-09-09T14:16:09;22.10;97.30
6538;DHT22;3302;52.508;13.454;2022-09-09T14:18:35;22.10;97.40
6538;DHT22;3302;52.508;13.454;2022-09-09T14:21:01;22.10;97.10
6538;DHT22;3302;52.508;13.454;2022-09-09T14:23:28;22.20;97.30
6538;DHT22;3302;52.508;13.454;2022-09-09T14:25:56;22.20;97.10
6538;DHT22;3302;52.508;13.454;2022-09-09T14:28:22;22.20;98.50
6538;DHT22;3302;52.508;13.454;2022-09-09T14:30:48;22.20;99.40
6538;DHT22;3302;52.508;13.454;2022-09-09T14:33:15;22.60;99.20
6538;DHT22;3302;52.508;13.454;2022-09-09T14:35:42;22.70;99.00
6538;DHT22;3302;52.508;13.454;2022-09-09T14:38:08;22.70;97.80
6538;DHT22;3302;52.508;13.454;2022-09-09T14:40:35;22.60;98.40
6538;DHT22;3302;52.508;13.454;2022-09-09T14:43:01;22.50;98.50
6538;DHT22;3302;52.508;13.454;2022-09-09T14:45:28;22.70;98.40
6538;DHT22;3302;52.508;13.454;2022-09-09T14:47:54;22.70;97.40
6538;DHT22;3302;52.508;13.454;2022-09-09T14:50:21;22.60;98.00
6538;DHT22;3302;52.508;13.454;2022-09-09T14:52:47;22.40;98.20
6538;DHT22;3302;52.508;13.454;2022-09-09T14:55:13;22.30;98.70
6538;DHT22;3302;52.508;13.454;2022-09-09T14:57:39;22.30;98.30
6538;DHT22;3302;52.508;13.454;2022-09-09T15:00:07;22.20;98.10
6538;DHT22;3302;52.508;13.454;2022-09-09T15:02:33;22.20;98.60
6538;DHT22;3302;52.508;13.454;2022-09-09T15:04:59;22.20;98.60
6538;DHT22;3302;52.508;13.454;2022-09-09T15:07:25;22.10;98.80
6538;DHT22;3302;52.508;13.454;2022-09-09T15:09:52;22.00;98.30
6538;DHT22;3302;52.508;13.454;2022-09-09T15:12:19;22.00;98.20
6538;DHT22;3302;52.508;13.454;2022-09-09T15:14:46;22.00;98.90
6538;DHT22;3302;52.508;13.454;2022-09-09T15:17:12;22.00;98.40
6538;DHT22;3302;52.508;13.454;2022-09-09T15:19:38;22.30;98.20
6538;DHT22;3302;52.508;13.454;2022-09-09T15:22:05;22.40;96.60
6538;DHT22;3302;52.508;13.454;2022-09-09T15:24:32;22.60;96.50
6538;DHT22;3302;52.508;13.454;2022-09-09T15:26:58;22.80;95.10
6538;DHT22;3302;52.508;13.454;2022-09-09T15:29:24;23.00;93.60
6538;DHT22;3302;52.508;13.454;2022-09-09T15:31:50;23.20;92.80
6538;DHT22;3302;52.508;13.454;2022-09-09T15:34:15;23.10;91.10
6538;DHT22;3302;52.508;13.454;2022-09-09T15:36:43;23.00;90.50
6538;DHT22;3302;52.508;13.454;2022-09-09T15:39:10;22.70;88.50
6538;DHT22;3302;52.508;13.454;2022-09-09T15:41:39;23.50;90.00
6538;DHT22;3302;52.508;13.454;2022-09-09T15:44:05;23.50;88.70
6538;DHT22;3302;52.508;13.454;2022-09-09T15:46:40;22.90;89.90
6538;DHT22;3302;52.508;13.454;2022-09-09T15:49:17;23.20;91.40
6538;DHT22;3302;52.508;13.454;2022-09-09T15:51:45;23.30;91.60
6538;DHT22;3302;52.508;13.454;2022-09-09T15:54:14;23.50;92.30
6538;DHT22;3302;52.508;13.454;2022-09-09T15:56:41;23.40;92.80
6538;DHT22;3302;52.508;13.454;2022-09-09T15:59:07;23.40;93.60
6538;DHT22;3302;52.508;13.454;2022-09-09T16:01:35;23.30;94.10
6538;DHT22;3302;52.508;13.454;2022-09-09T16:04:01;23.20;94.00
6538;DHT22;3302;52.508;13.454;2022-09-09T16:06:28;23.10;94.10
6538;DHT22;3302;52.508;13.454;2022-09-09T16:08:55;23.00;93.50
6538;DHT22;3302;52.508;13.454;2022-09-09T16:11:25;23.00;93.40
6538;DHT22;3302;52.508;13.454;2022-09-09T16:13:52;22.90;94.00
6538;DHT22;3302;52.508;13.454;2022-09-09T16:16:21;22.90;94.20
6538;DHT22;3302;52.508;13.454;2022-09-09T16:18:49;22.90;94.20
6538;DHT22;3302;52.508;13.454;2022-09-09T16:21:33;22.80;94.30
6538;DHT22;3302;52.508;13.454;2022-09-09T16:24:01;22.80;94.90
6538;DHT22;3302;52.508;13.454;2022-09-09T16:26:32;22.60;94.20
6538;DHT22;3302;52.508;13.454;2022-09-09T16:28:59;22.40;93.30
6538;DHT22;3302;52.508;13.454;2022-09-09T16:31:26;22.30;93.70
6538;DHT22;3302;52.508;13.454;2022-09-09T16:33:52;22.20;93.20
6538;DHT22;3302;52.508;13.454;2022-09-09T16:36:26;22.20;93.20
6538;DHT22;3302;52.508;13.454;2022-09-09T16:38:53;22.10;93.50
6538;DHT22;3302;52.508;13.454;2022-09-09T16:41:20;22.10;93.70
6538;DHT22;3302;52.508;13.454;2022-09-09T16:43:46;22.10;93.90
6538;DHT22;3302;52.508;13.454;2022-09-09T16:46:14;22.10;93.60
6538;DHT22;3302;52.508;13.454;2022-09-09T16:48:43;22.00;93.90
6538;DHT22;3302;52.508;13.454;2022-09-09T16:51:17;22.00;94.00
6538;DHT22;3302;52.508;13.454;2022-09-09T16:53:43;22.00;94.60
6538;DHT22;3302;52.508;13.454;2022-09-09T16:56:15;21.70;95.10
6538;DHT22;3302;52.508;13.454;2022-09-09T16:58:42;21.60;97.60
6538;DHT22;3302;52.508;13.454;2022-09-09T17:01:11;21.50;98.30
6538;DHT22;3302;52.508;13.454;2022-09-09T17:03:39;21.50;98.70
6538;DHT22;3302;52.508;13.454;2022-09-09T17:06:10;21.50;99.00
6538;DHT22;3302;52.508;13.454;2022-09-09T17:08:37;21.40;99.50
6538;DHT22;3302;52.508;13.454;2022-09-09T17:11:11;21.50;99.70
6538;DHT22;3302;52.508;13.454;2022-09-09T17:13:40;21.50;99.90
6538;DHT22;3302;52.508;13.454;2022-09-09T17:16:06;21.30;99.90
6538;DHT22;3302;52.508;13.454;2022-09-09T17:18:33;21.20;99.90
6538;DHT22;3302;52.508;13.454;2022-09-09T17:21:03;21.00;99.90
6538;DHT22;3302;52.508;13.454;2022-09-09T17:23:29;20.90;99.90
6538;DHT22;3302;52.508;13.454;2022-09-09T17:25:56;20.80;99.90
6538;DHT22;3302;52.508;13.454;2022-09-09T17:28:23;20.80;99.90
6538;DHT22;3302;52.508;13.454;2022-09-09T17:30:53;20.90;99.90
6538;DHT22;3302;52.508;13.454;2022-09-09T17:33:18;20.70;99.90
6538;DHT22;3302;52.508;13.454;2022-09-09T17:35:46;20.50;99.90